sensor_id;sensor_type;location;lat;lon;timestamp;P1;durP1;ratioP1;P2;durP2;ratioP2
28304;SDS011;15569;42.652;23.040;2022-12-18T00:01:26;8.35;;;4.90;;
28304;SDS011;15569;42.652;23.040;2022-12-18T00:03:56;11.40;;;5.25;;
28304;SDS011;15569;42.652;23.040;2022-12-18T00:06:25;10.55;;;4.97;;
28304;SDS011;15569;42.652;23.040;2022-12-18T00:08:52;8.57;;;4.55;;
28304;SDS011;15569;42.652;23.040;2022-12-18T00:11:20;9.25;;;5.65;;
28304;SDS011;15569;42.652;23.040;2022-12-18T00:13:46;8.73;;;5.03;;
28304;SDS011;15569;42.652;23.040;2022-12-18T00:16:14;8.30;;;5.45;;
28304;SDS011;15569;42.652;23.040;2022-12-18T00:18:41;11.93;;;5.50;;
28304;SDS011;15569;42.652;23.040;2022-12-18T00:21:08;8.57;;;4.88;;
28304;SDS011;15569;42.652;23.040;2022-12-18T00:23:35;9.38;;;5.28;;
28304;SDS011;15569;42.652;23.040;2022-12-18T00:26:03;9.70;;;5.45;;
28304;SDS011;15569;42.652;23.040;2022-12-18T00:28:30;8.65;;;5.15;;
28304;SDS011;15569;42.652;23.040;2022-12-18T00:31:02;10.13;;;5.78;;
28304;SDS011;15569;42.652;23.040;2022-12-18T00:33:35;7.50;;;4.30;;
28304;SDS011;15569;42.652;23.040;2022-12-18T00:36:01;7.78;;;4.78;;
28304;SDS011;15569;42.652;23.040;2022-12-18T00:38:35;10.23;;;5.00;;
28304;SDS011;15569;42.652;23.040;2022-12-18T00:41:01;9.73;;;5.03;;
28304;SDS011;15569;42.652;23.040;2022-12-18T00:43:26;9.88;;;5.15;;
28304;SDS011;15569;42.652;23.040;2022-12-18T00:45:52;9.02;;;4.75;;
28304;SDS011;15569;42.652;23.040;2022-12-18T00:48:18;7.35;;;4.65;;
28304;SDS011;15569;42.652;23.040;2022-12-18T00:50:43;9.57;;;5.20;;
28304;SDS011;15569;42.652;23.040;2022-12-18T00:53:09;8.43;;;4.85;;
28304;SDS011;15569;42.652;23.040;2022-12-18T00:55:34;8.00;;;4.25;;
28304;SDS011;15569;42.652;23.040;2022-12-18T00:57:59;7.13;;;4.57;;
28304;SDS011;15569;42.652;23.040;2022-12-18T01:00:25;8.07;;;5.30;;
28304;SDS011;15569;42.652;23.040;2022-12-18T01:02:50;8.23;;;4.15;;
28304;SDS011;15569;42.652;23.040;2022-12-18T01:05:16;6.05;;;4.03;;
28304;SDS011;15569;42.652;23.040;2022-12-18T01:07:41;9.35;;;4.53;;
28304;SDS011;15569;42.652;23.040;2022-12-18T01:10:07;11.45;;;4.97;;
28304;SDS011;15569;42.652;23.040;2022-12-18T01:12:34;5.75;;;3.78;;
28304;SDS011;15569;42.652;23.040;2022-12-18T01:15:00;7.63;;;4.40;;
28304;SDS011;15569;42.652;23.040;2022-12-18T01:17:25;6.47;;;4.50;;
28304;SDS011;15569;42.652;23.040;2022-12-18T01:19:50;9.25;;;4.68;;
28304;SDS011;15569;42.652;23.040;2022-12-18T01:22:16;9.05;;;4.93;;
28304;SDS011;15569;42.652;23.040;2022-12-18T01:24:41;7.13;;;4.40;;
28304;SDS011;15569;42.652;23.040;2022-12-18T01:27:06;9.77;;;5.38;;
28304;SDS011;15569;42.652;23.040;2022-12-18T01:29:32;7.50;;;4.13;;
28304;SDS011;15569;42.652;23.040;2022-12-18T01:31:57;12.40;;;5.75;;
28304;SDS011;15569;42.652;23.040;2022-12-18T01:34:23;10.27;;;5.43;;
28304;SDS011;15569;42.652;23.040;2022-12-18T01:36:49;13.25;;;6.05;;
28304;SDS011;15569;42.652;23.040;2022-12-18T01:39:17;9.18;;;5.25;;
28304;SDS011;15569;42.652;23.040;2022-12-18T01:41:43;10.77;;;6.45;;
28304;SDS011;15569;42.652;23.040;2022-12-18T01:44:51;9.10;;;4.75;;
28304;SDS011;15569;42.652;23.040;2022-12-18T01:47:28;12.23;;;5.20;;
28304;SDS011;15569;42.652;23.040;2022-12-18T01:49:59;10.40;;;4.70;;
28304;SDS011;15569;42.652;23.040;2022-12-18T01:52:30;9.23;;;5.15;;
28304;SDS011;15569;42.652;23.040;2022-12-18T01:54:57;8.75;;;5.10;;
28304;SDS011;15569;42.652;23.040;2022-12-18T01:57:25;7.68;;;4.80;;
28304;SDS011;15569;42.652;23.040;2022-12-18T01:59:52;9.95;;;5.40;;
28304;SDS011;15569;42.652;23.040;2022-12-18T02:02:19;11.40;;;5.00;;
28304;SDS011;15569;42.652;23.040;2022-12-18T02:04:45;9.43;;;5.05;;
28304;SDS011;15569;42.652;23.040;2022-12-18T02:10:26;8.75;;;4.78;;
28304;SDS011;15569;42.652;23.040;2022-12-18T02:13:53;8.02;;;4.75;;
28304;SDS011;15569;42.652;23.040;2022-12-18T02:19:06;9.18;;;4.65;;
28304;SDS011;15569;42.652;23.040;2022-12-18T02:21:48;10.77;;;5.20;;
28304;SDS011;15569;42.652;23.040;2022-12-18T02:24:29;9.90;;;5.05;;
28304;SDS011;15569;42.652;23.040;2022-12-18T02:26:58;9.35;;;4.70;;
28304;SDS011;15569;42.652;23.040;2022-12-18T02:29:31;9.20;;;5.32;;
28304;SDS011;15569;42.652;23.040;2022-12-18T02:32:00;10.75;;;5.63;;
28304;SDS011;15569;42.652;23.040;2022-12-18T02:34:31;6.28;;;4.07;;
28304;SDS011;15569;42.652;23.040;2022-12-18T02:37:00;7.28;;;4.53;;
28304;SDS011;15569;42.652;23.040;2022-12-18T02:39:29;6.20;;;4.10;;
28304;SDS011;15569;42.652;23.040;2022-12-18T02:41:56;8.15;;;4.50;;
28304;SDS011;15569;42.652;23.040;2022-12-18T02:44:24;9.68;;;5.20;;
28304;SDS011;15569;42.652;23.040;2022-12-18T02:46:50;7.30;;;4.50;;
28304;SDS011;15569;42.652;23.040;2022-12-18T02:49:21;7.30;;;4.63;;
28304;SDS011;15569;42.652;23.040;2022-12-18T02:59:56;7.30;;;4.30;;
28304;SDS011;15569;42.652;23.040;2022-12-18T03:08:05;8.00;;;4.97;;
28304;SDS011;15569;42.652;23.040;2022-12-18T03:10:32;11.00;;;5.18;;
28304;SDS011;15569;42.652;23.040;2022-12-18T03:13:04;9.02;;;5.25;;
28304;SDS011;15569;42.652;23.040;2022-12-18T03:15:36;5.20;;;3.28;;
28304;SDS011;15569;42.652;23.040;2022-12-18T03:18:06;10.85;;;6.03;;
28304;SDS011;15569;42.652;23.040;2022-12-18T03:20:36;10.98;;;5.65;;
28304;SDS011;15569;42.652;23.040;2022-12-18T03:23:06;10.93;;;5.90;;
28304;SDS011;15569;42.652;23.040;2022-12-18T03:25:35;10.93;;;5.85;;
28304;SDS011;15569;42.652;23.040;2022-12-18T03:28:05;10.15;;;5.70;;
28304;SDS011;15569;42.652;23.040;2022-12-18T03:30:34;11.10;;;5.63;;
28304;SDS011;15569;42.652;23.040;2022-12-18T03:34:04;11.85;;;5.85;;
28304;SDS011;15569;42.652;23.040;2022-12-18T03:36:30;12.10;;;6.40;;
28304;SDS011;15569;42.652;23.040;2022-12-18T03:38:55;12.55;;;6.30;;
28304;SDS011;15569;42.652;23.040;2022-12-18T03:49:53;10.32;;;5.38;;
28304;SDS011;15569;42.652;23.040;2022-12-18T03:52:44;14.32;;;6.90;;
28304;SDS011;15569;42.652;23.040;2022-12-18T03:55:11;10.43;;;5.57;;
28304;SDS011;15569;42.652;23.040;2022-12-18T03:57:37;9.02;;;5.63;;
28304;SDS011;15569;42.652;23.040;2022-12-18T04:00:05;13.75;;;6.43;;
28304;SDS011;15569;42.652;23.040;2022-12-18T04:02:38;19.02;;;7.75;;
28304;SDS011;15569;42.652;23.040;2022-12-18T04:05:09;12.77;;;6.68;;
28304;SDS011;15569;42.652;23.040;2022-12-18T04:07:36;13.55;;;6.97;;
28304;SDS011;15569;42.652;23.040;2022-12-18T04:10:04;11.50;;;6.65;;
28304;SDS011;15569;42.652;23.040;2022-12-18T04:12:32;14.80;;;6.85;;
28304;SDS011;15569;42.652;23.040;2022-12-18T04:14:57;11.18;;;6.80;;
28304;SDS011;15569;42.652;23.040;2022-12-18T04:17:23;14.00;;;5.97;;
28304;SDS011;15569;42.652;23.040;2022-12-18T04:19:48;13.45;;;7.03;;
28304;SDS011;15569;42.652;23.040;2022-12-18T04:22:14;14.07;;;7.78;;
28304;SDS011;15569;42.652;23.040;2022-12-18T04:24:39;15.23;;;7.32;;
28304;SDS011;15569;42.652;23.040;2022-12-18T04:27:05;16.55;;;7.35;;
28304;SDS011;15569;42.652;23.040;2022-12-18T04:29:30;15.82;;;7.18;;
28304;SDS011;15569;42.652;23.040;2022-12-18T04:31:56;14.55;;;7.47;;
28304;SDS011;15569;42.652;23.040;2022-12-18T04:34:21;19.30;;;8.10;;
28304;SDS011;15569;42.652;23.040;2022-12-18T04:36:47;15.65;;;8.10;;
28304;SDS011;15569;42.652;23.040;2022-12-18T04:39:13;15.32;;;8.27;;
28304;SDS011;15569;42.652;23.040;2022-12-18T04:41:39;18.35;;;7.43;;
28304;SDS011;15569;42.652;23.040;2022-12-18T04:44:04;15.60;;;7.78;;
28304;SDS011;15569;42.652;23.040;2022-12-18T04:46:29;17.17;;;7.82;;
28304;SDS011;15569;42.652;23.040;2022-12-18T04:48:55;15.15;;;7.72;;
28304;SDS011;15569;42.652;23.040;2022-12-18T04:51:20;21.63;;;9.23;;
28304;SDS011;15569;42.652;23.040;2022-12-18T04:53:46;17.13;;;7.88;;
28304;SDS011;15569;42.652;23.040;2022-12-18T04:56:12;20.63;;;9.43;;
28304;SDS011;15569;42.652;23.040;2022-12-18T04:58:40;20.45;;;9.25;;
28304;SDS011;15569;42.652;23.040;2022-12-18T05:01:07;15.05;;;7.63;;
28304;SDS011;15569;42.652;23.040;2022-12-18T05:03:34;20.13;;;8.35;;
28304;SDS011;15569;42.652;23.040;2022-12-18T05:06:00;24.63;;;12.50;;
28304;SDS011;15569;42.652;23.040;2022-12-18T05:08:26;24.60;;;11.13;;
28304;SDS011;15569;42.652;23.040;2022-12-18T05:11:07;31.58;;;11.50;;
28304;SDS011;15569;42.652;23.040;2022-12-18T05:13:34;23.95;;;9.40;;
28304;SDS011;15569;42.652;23.040;2022-12-18T05:16:00;17.38;;;8.65;;
28304;SDS011;15569;42.652;23.040;2022-12-18T05:18:27;26.98;;;9.30;;
28304;SDS011;15569;42.652;23.040;2022-12-18T05:20:53;18.10;;;8.55;;
28304;SDS011;15569;42.652;23.040;2022-12-18T05:23:19;21.88;;;10.13;;
28304;SDS011;15569;42.652;23.040;2022-12-18T05:25:50;22.17;;;9.75;;
28304;SDS011;15569;42.652;23.040;2022-12-18T05:28:24;23.30;;;11.30;;
28304;SDS011;15569;42.652;23.040;2022-12-18T05:30:51;28.83;;;12.20;;
28304;SDS011;15569;42.652;23.040;2022-12-18T05:33:18;21.30;;;8.93;;
28304;SDS011;15569;42.652;23.040;2022-12-18T05:35:49;21.30;;;9.07;;
28304;SDS011;15569;42.652;23.040;2022-12-18T05:38:18;23.80;;;10.65;;
28304;SDS011;15569;42.652;23.040;2022-12-18T05:40:44;23.65;;;11.23;;
28304;SDS011;15569;42.652;23.040;2022-12-18T05:43:10;24.38;;;10.55;;
28304;SDS011;15569;42.652;23.040;2022-12-18T05:45:39;20.52;;;11.50;;
28304;SDS011;15569;42.652;23.040;2022-12-18T05:48:05;24.80;;;10.73;;
28304;SDS011;15569;42.652;23.040;2022-12-18T05:50:33;22.23;;;10.27;;
28304;SDS011;15569;42.652;23.040;2022-12-18T05:53:04;25.67;;;9.98;;
28304;SDS011;15569;42.652;23.040;2022-12-18T05:55:32;17.10;;;8.20;;
28304;SDS011;15569;42.652;23.040;2022-12-18T05:57:59;18.42;;;8.02;;
28304;SDS011;15569;42.652;23.040;2022-12-18T06:00:24;23.30;;;11.55;;
28304;SDS011;15569;42.652;23.040;2022-12-18T06:02:50;28.17;;;12.32;;
28304;SDS011;15569;42.652;23.040;2022-12-18T06:05:15;23.45;;;9.68;;
28304;SDS011;15569;42.652;23.040;2022-12-18T06:07:41;21.20;;;9.68;;
28304;SDS011;15569;42.652;23.040;2022-12-18T06:10:06;17.65;;;8.18;;
28304;SDS011;15569;42.652;23.040;2022-12-18T06:12:32;20.25;;;8.38;;
28304;SDS011;15569;42.652;23.040;2022-12-18T06:14:58;22.63;;;9.95;;
28304;SDS011;15569;42.652;23.040;2022-12-18T06:17:31;20.73;;;10.15;;
28304;SDS011;15569;42.652;23.040;2022-12-18T06:19:57;20.52;;;8.55;;
28304;SDS011;15569;42.652;23.040;2022-12-18T06:22:22;20.13;;;9.15;;
28304;SDS011;15569;42.652;23.040;2022-12-18T06:24:48;24.05;;;9.70;;
28304;SDS011;15569;42.652;23.040;2022-12-18T06:27:13;25.25;;;11.05;;
28304;SDS011;15569;42.652;23.040;2022-12-18T06:29:39;24.65;;;10.68;;
28304;SDS011;15569;42.652;23.040;2022-12-18T06:32:04;22.73;;;10.82;;
28304;SDS011;15569;42.652;23.040;2022-12-18T06:34:30;24.30;;;10.65;;
28304;SDS011;15569;42.652;23.040;2022-12-18T06:36:55;21.83;;;10.32;;
28304;SDS011;15569;42.652;23.040;2022-12-18T06:39:20;29.77;;;11.27;;
28304;SDS011;15569;42.652;23.040;2022-12-18T06:41:46;25.73;;;11.10;;
28304;SDS011;15569;42.652;23.040;2022-12-18T06:44:11;25.95;;;11.98;;
28304;SDS011;15569;42.652;23.040;2022-12-18T06:46:37;27.80;;;11.75;;
28304;SDS011;15569;42.652;23.040;2022-12-18T06:49:02;25.40;;;10.60;;
28304;SDS011;15569;42.652;23.040;2022-12-18T06:51:28;25.33;;;10.27;;
28304;SDS011;15569;42.652;23.040;2022-12-18T06:53:53;25.77;;;10.43;;
28304;SDS011;15569;42.652;23.040;2022-12-18T06:56:19;23.75;;;10.15;;
28304;SDS011;15569;42.652;23.040;2022-12-18T06:58:44;22.45;;;9.65;;
28304;SDS011;15569;42.652;23.040;2022-12-18T07:01:10;23.02;;;10.82;;
28304;SDS011;15569;42.652;23.040;2022-12-18T07:03:37;23.17;;;10.40;;
28304;SDS011;15569;42.652;23.040;2022-12-18T07:06:04;21.80;;;9.77;;
28304;SDS011;15569;42.652;23.040;2022-12-18T07:08:30;27.55;;;11.75;;
28304;SDS011;15569;42.652;23.040;2022-12-18T07:10:56;23.50;;;11.55;;
28304;SDS011;15569;42.652;23.040;2022-12-18T07:13:22;30.65;;;13.15;;
28304;SDS011;15569;42.652;23.040;2022-12-18T07:15:48;23.65;;;11.27;;
28304;SDS011;15569;42.652;23.040;2022-12-18T07:18:13;21.80;;;10.98;;
28304;SDS011;15569;42.652;23.040;2022-12-18T07:20:38;31.50;;;13.75;;
28304;SDS011;15569;42.652;23.040;2022-12-18T07:23:04;27.00;;;13.00;;
28304;SDS011;15569;42.652;23.040;2022-12-18T07:25:33;22.52;;;12.55;;
28304;SDS011;15569;42.652;23.040;2022-12-18T07:27:59;32.25;;;13.30;;
28304;SDS011;15569;42.652;23.040;2022-12-18T07:30:25;28.58;;;11.73;;
28304;SDS011;15569;42.652;23.040;2022-12-18T07:32:50;23.77;;;10.38;;
28304;SDS011;15569;42.652;23.040;2022-12-18T07:35:15;21.50;;;9.88;;
28304;SDS011;15569;42.652;23.040;2022-12-18T07:37:41;21.80;;;10.15;;
28304;SDS011;15569;42.652;23.040;2022-12-18T07:40:07;23.38;;;10.43;;
28304;SDS011;15569;42.652;23.040;2022-12-18T07:42:33;19.80;;;9.07;;
28304;SDS011;15569;42.652;23.040;2022-12-18T07:44:59;18.98;;;10.07;;
28304;SDS011;15569;42.652;23.040;2022-12-18T07:47:26;21.55;;;10.73;;
28304;SDS011;15569;42.652;23.040;2022-12-18T07:49:52;24.75;;;9.93;;
28304;SDS011;15569;42.652;23.040;2022-12-18T07:52:18;21.23;;;8.68;;
28304;SDS011;15569;42.652;23.040;2022-12-18T07:54:43;22.20;;;9.18;;
28304;SDS011;15569;42.652;23.040;2022-12-18T07:57:09;23.30;;;10.10;;
28304;SDS011;15569;42.652;23.040;2022-12-18T07:59:34;24.70;;;10.07;;
28304;SDS011;15569;42.652;23.040;2022-12-18T08:02:00;22.92;;;10.30;;
28304;SDS011;15569;42.652;23.040;2022-12-18T08:04:25;23.02;;;10.27;;
28304;SDS011;15569;42.652;23.040;2022-12-18T08:06:51;20.92;;;10.80;;
28304;SDS011;15569;42.652;23.040;2022-12-18T08:09:18;25.83;;;10.82;;
28304;SDS011;15569;42.652;23.040;2022-12-18T08:11:43;24.20;;;11.07;;
28304;SDS011;15569;42.652;23.040;2022-12-18T08:14:09;26.75;;;10.77;;
28304;SDS011;15569;42.652;23.040;2022-12-18T08:16:34;23.70;;;11.18;;
28304;SDS011;15569;42.652;23.040;2022-12-18T08:19:00;25.23;;;12.63;;
28304;SDS011;15569;42.652;23.040;2022-12-18T08:21:26;28.10;;;11.38;;
28304;SDS011;15569;42.652;23.040;2022-12-18T08:23:55;25.20;;;11.02;;
28304;SDS011;15569;42.652;23.040;2022-12-18T08:26:22;27.75;;;11.70;;
28304;SDS011;15569;42.652;23.040;2022-12-18T08:28:48;26.95;;;11.30;;
28304;SDS011;15569;42.652;23.040;2022-12-18T08:31:14;21.80;;;10.85;;
28304;SDS011;15569;42.652;23.040;2022-12-18T08:33:40;22.30;;;11.45;;
28304;SDS011;15569;42.652;23.040;2022-12-18T08:36:06;22.50;;;10.73;;
28304;SDS011;15569;42.652;23.040;2022-12-18T08:38:32;23.23;;;10.40;;
28304;SDS011;15569;42.652;23.040;2022-12-18T08:41:05;24.65;;;11.07;;
28304;SDS011;15569;42.652;23.040;2022-12-18T08:43:32;20.92;;;9.27;;
28304;SDS011;15569;42.652;23.040;2022-12-18T08:46:17;22.83;;;12.27;;
28304;SDS011;15569;42.652;23.040;2022-12-18T08:48:43;25.40;;;11.35;;
28304;SDS011;15569;42.652;23.040;2022-12-18T08:51:08;24.40;;;10.75;;
28304;SDS011;15569;42.652;23.040;2022-12-18T08:53:34;20.88;;;10.55;;
28304;SDS011;15569;42.652;23.040;2022-12-18T08:56:00;26.30;;;11.18;;
28304;SDS011;15569;42.652;23.040;2022-12-18T08:58:26;28.58;;;13.55;;
28304;SDS011;15569;42.652;23.040;2022-12-18T09:00:52;26.42;;;10.93;;
28304;SDS011;15569;42.652;23.040;2022-12-18T09:03:18;26.88;;;11.65;;
28304;SDS011;15569;42.652;23.040;2022-12-18T09:05:45;31.67;;;13.05;;
28304;SDS011;15569;42.652;23.040;2022-12-18T09:08:10;31.83;;;12.75;;
28304;SDS011;15569;42.652;23.040;2022-12-18T09:10:43;22.58;;;10.40;;
28304;SDS011;15569;42.652;23.040;2022-12-18T09:13:10;22.17;;;9.85;;
28304;SDS011;15569;42.652;23.040;2022-12-18T09:15:43;21.50;;;9.98;;
28304;SDS011;15569;42.652;23.040;2022-12-18T09:18:10;25.23;;;10.40;;
28304;SDS011;15569;42.652;23.040;2022-12-18T09:20:36;38.83;;;15.38;;
28304;SDS011;15569;42.652;23.040;2022-12-18T09:23:02;36.70;;;12.52;;
28304;SDS011;15569;42.652;23.040;2022-12-18T09:25:29;26.25;;;10.48;;
28304;SDS011;15569;42.652;23.040;2022-12-18T09:28:05;21.55;;;8.88;;
28304;SDS011;15569;42.652;23.040;2022-12-18T09:30:31;20.20;;;10.32;;
28304;SDS011;15569;42.652;23.040;2022-12-18T09:32:59;19.85;;;9.00;;
28304;SDS011;15569;42.652;23.040;2022-12-18T09:35:25;20.88;;;8.85;;
28304;SDS011;15569;42.652;23.040;2022-12-18T09:37:50;27.45;;;10.38;;
28304;SDS011;15569;42.652;23.040;2022-12-18T09:40:16;21.10;;;9.35;;
28304;SDS011;15569;42.652;23.040;2022-12-18T09:42:45;23.67;;;11.80;;
28304;SDS011;15569;42.652;23.040;2022-12-18T09:45:15;20.25;;;9.80;;
28304;SDS011;15569;42.652;23.040;2022-12-18T09:47:42;23.25;;;9.05;;
28304;SDS011;15569;42.652;23.040;2022-12-18T09:50:30;15.75;;;8.65;;
28304;SDS011;15569;42.652;23.040;2022-12-18T09:53:05;24.60;;;9.30;;
28304;SDS011;15569;42.652;23.040;2022-12-18T09:55:38;22.67;;;9.20;;
28304;SDS011;15569;42.652;23.040;2022-12-18T10:00:55;17.52;;;8.45;;
28304;SDS011;15569;42.652;23.040;2022-12-18T10:03:21;19.63;;;8.32;;
28304;SDS011;15569;42.652;23.040;2022-12-18T10:14:36;25.95;;;12.63;;
28304;SDS011;15569;42.652;23.040;2022-12-18T10:19:25;21.73;;;11.38;;
28304;SDS011;15569;42.652;23.040;2022-12-18T10:27:39;31.13;;;17.00;;
28304;SDS011;15569;42.652;23.040;2022-12-18T10:30:12;30.88;;;12.57;;
28304;SDS011;15569;42.652;23.040;2022-12-18T10:32:46;38.10;;;18.42;;
28304;SDS011;15569;42.652;23.040;2022-12-18T10:35:15;48.03;;;17.00;;
28304;SDS011;15569;42.652;23.040;2022-12-18T10:43:15;88.22;;;29.65;;
28304;SDS011;15569;42.652;23.040;2022-12-18T10:45:57;48.03;;;17.88;;
28304;SDS011;15569;42.652;23.040;2022-12-18T10:48:25;53.90;;;18.92;;
28304;SDS011;15569;42.652;23.040;2022-12-18T10:50:51;40.47;;;15.50;;
28304;SDS011;15569;42.652;23.040;2022-12-18T10:53:21;32.35;;;12.32;;
28304;SDS011;15569;42.652;23.040;2022-12-18T10:55:50;22.85;;;10.98;;
28304;SDS011;15569;42.652;23.040;2022-12-18T11:01:00;24.42;;;11.77;;
28304;SDS011;15569;42.652;23.040;2022-12-18T11:06:17;38.72;;;14.82;;
28304;SDS011;15569;42.652;23.040;2022-12-18T11:11:28;44.03;;;13.70;;
28304;SDS011;15569;42.652;23.040;2022-12-18T11:13:58;39.08;;;14.45;;
28304;SDS011;15569;42.652;23.040;2022-12-18T11:16:24;64.25;;;19.88;;
28304;SDS011;15569;42.652;23.040;2022-12-18T11:18:51;54.53;;;17.77;;
28304;SDS011;15569;42.652;23.040;2022-12-18T11:21:16;68.00;;;21.67;;
28304;SDS011;15569;42.652;23.040;2022-12-18T11:24:00;53.42;;;17.25;;
28304;SDS011;15569;42.652;23.040;2022-12-18T11:26:33;34.70;;;13.32;;
28304;SDS011;15569;42.652;23.040;2022-12-18T11:29:09;40.70;;;13.20;;
28304;SDS011;15569;42.652;23.040;2022-12-18T11:31:40;39.60;;;12.57;;
28304;SDS011;15569;42.652;23.040;2022-12-18T11:34:10;35.40;;;12.10;;
28304;SDS011;15569;42.652;23.040;2022-12-18T11:36:49;34.70;;;11.70;;
28304;SDS011;15569;42.652;23.040;2022-12-18T11:41:59;29.13;;;10.32;;
28304;SDS011;15569;42.652;23.040;2022-12-18T11:44:45;25.20;;;11.73;;
28304;SDS011;15569;42.652;23.040;2022-12-18T11:52:47;46.03;;;17.97;;
28304;SDS011;15569;42.652;23.040;2022-12-18T11:55:13;29.67;;;12.27;;
28304;SDS011;15569;42.652;23.040;2022-12-18T12:00:50;42.85;;;15.05;;
28304;SDS011;15569;42.652;23.040;2022-12-18T12:09:33;46.33;;;16.02;;
28304;SDS011;15569;42.652;23.040;2022-12-18T12:15:10;74.00;;;19.88;;
28304;SDS011;15569;42.652;23.040;2022-12-18T12:25:57;24.27;;;8.73;;
28304;SDS011;15569;42.652;23.040;2022-12-18T12:39:01;63.53;;;19.02;;
28304;SDS011;15569;42.652;23.040;2022-12-18T12:41:31;21.17;;;8.77;;
28304;SDS011;15569;42.652;23.040;2022-12-18T12:44:22;44.08;;;12.98;;
28304;SDS011;15569;42.652;23.040;2022-12-18T12:46:51;16.40;;;7.65;;
28304;SDS011;15569;42.652;23.040;2022-12-18T12:49:20;30.48;;;10.48;;
28304;SDS011;15569;42.652;23.040;2022-12-18T12:51:50;59.35;;;17.67;;
28304;SDS011;15569;42.652;23.040;2022-12-18T12:54:23;48.22;;;15.82;;
28304;SDS011;15569;42.652;23.040;2022-12-18T12:56:59;29.83;;;11.90;;
28304;SDS011;15569;42.652;23.040;2022-12-18T13:00:17;41.80;;;14.55;;
28304;SDS011;15569;42.652;23.040;2022-12-18T13:02:35;25.40;;;11.48;;
28304;SDS011;15569;42.652;23.040;2022-12-18T13:05:24;63.45;;;21.60;;
28304;SDS011;15569;42.652;23.040;2022-12-18T13:08:11;21.33;;;8.50;;
28304;SDS011;15569;42.652;23.040;2022-12-18T13:10:57;92.05;;;30.80;;
28304;SDS011;15569;42.652;23.040;2022-12-18T13:13:52;27.40;;;10.65;;
28304;SDS011;15569;42.652;23.040;2022-12-18T13:16:20;105.40;;;31.98;;
28304;SDS011;15569;42.652;23.040;2022-12-18T13:18:50;60.58;;;23.42;;
28304;SDS011;15569;42.652;23.040;2022-12-18T13:21:50;21.73;;;8.15;;
28304;SDS011;15569;42.652;23.040;2022-12-18T13:24:24;21.05;;;8.32;;
28304;SDS011;15569;42.652;23.040;2022-12-18T13:26:52;38.40;;;15.02;;
28304;SDS011;15569;42.652;23.040;2022-12-18T13:32:18;16.88;;;7.75;;
28304;SDS011;15569;42.652;23.040;2022-12-18T13:34:48;23.08;;;10.68;;
28304;SDS011;15569;42.652;23.040;2022-12-18T13:39:57;45.75;;;18.23;;
28304;SDS011;15569;42.652;23.040;2022-12-18T13:48:15;139.88;;;46.20;;
28304;SDS011;15569;42.652;23.040;2022-12-18T13:53:36;26.45;;;10.13;;
28304;SDS011;15569;42.652;23.040;2022-12-18T13:56:07;24.55;;;9.60;;
28304;SDS011;15569;42.652;23.040;2022-12-18T13:58:32;30.75;;;12.35;;
28304;SDS011;15569;42.652;23.040;2022-12-18T14:00:58;27.90;;;11.15;;
28304;SDS011;15569;42.652;23.040;2022-12-18T14:03:25;24.67;;;10.20;;
28304;SDS011;15569;42.652;23.040;2022-12-18T14:06:02;25.55;;;9.88;;
28304;SDS011;15569;42.652;23.040;2022-12-18T14:08:34;22.38;;;9.35;;
28304;SDS011;15569;42.652;23.040;2022-12-18T14:11:03;29.05;;;11.52;;
28304;SDS011;15569;42.652;23.040;2022-12-18T14:13:32;29.40;;;11.43;;
28304;SDS011;15569;42.652;23.040;2022-12-18T14:16:01;18.90;;;8.20;;
28304;SDS011;15569;42.652;23.040;2022-12-18T14:21:23;25.88;;;8.25;;
28304;SDS011;15569;42.652;23.040;2022-12-18T14:24:12;19.50;;;9.48;;
28304;SDS011;15569;42.652;23.040;2022-12-18T14:26:40;30.45;;;11.68;;
28304;SDS011;15569;42.652;23.040;2022-12-18T14:29:25;29.08;;;9.93;;
28304;SDS011;15569;42.652;23.040;2022-12-18T14:32:04;28.90;;;11.25;;
28304;SDS011;15569;42.652;23.040;2022-12-18T14:34:42;24.20;;;9.80;;
28304;SDS011;15569;42.652;23.040;2022-12-18T14:37:13;19.42;;;8.80;;
28304;SDS011;15569;42.652;23.040;2022-12-18T14:39:51;27.98;;;10.70;;
28304;SDS011;15569;42.652;23.040;2022-12-18T14:42:24;24.98;;;9.30;;
28304;SDS011;15569;42.652;23.040;2022-12-18T14:47:56;22.17;;;8.55;;
28304;SDS011;15569;42.652;23.040;2022-12-18T14:50:22;23.75;;;8.52;;
28304;SDS011;15569;42.652;23.040;2022-12-18T14:52:48;19.73;;;8.55;;
28304;SDS011;15569;42.652;23.040;2022-12-18T14:55:17;14.50;;;7.30;;
28304;SDS011;15569;42.652;23.040;2022-12-18T14:57:45;17.80;;;8.13;;
28304;SDS011;15569;42.652;23.040;2022-12-18T15:00:18;25.63;;;9.55;;
28304;SDS011;15569;42.652;23.040;2022-12-18T15:02:48;24.85;;;11.18;;
28304;SDS011;15569;42.652;23.040;2022-12-18T15:05:28;33.17;;;14.23;;
28304;SDS011;15569;42.652;23.040;2022-12-18T15:07:56;57.72;;;21.33;;
28304;SDS011;15569;42.652;23.040;2022-12-18T15:10:27;132.00;;;42.30;;
28304;SDS011;15569;42.652;23.040;2022-12-18T15:21:09;87.45;;;25.85;;
28304;SDS011;15569;42.652;23.040;2022-12-18T15:26:14;53.40;;;16.30;;
28304;SDS011;15569;42.652;23.040;2022-12-18T15:28:45;62.38;;;21.48;;
28304;SDS011;15569;42.652;23.040;2022-12-18T15:36:18;82.38;;;25.35;;
28304;SDS011;15569;42.652;23.040;2022-12-18T15:38:48;47.67;;;17.42;;
28304;SDS011;15569;42.652;23.040;2022-12-18T15:41:15;46.60;;;14.43;;
28304;SDS011;15569;42.652;23.040;2022-12-18T15:43:42;38.08;;;15.00;;
28304;SDS011;15569;42.652;23.040;2022-12-18T15:46:12;54.13;;;19.15;;
28304;SDS011;15569;42.652;23.040;2022-12-18T15:48:40;41.33;;;15.02;;
28304;SDS011;15569;42.652;23.040;2022-12-18T15:51:11;58.67;;;18.95;;
28304;SDS011;15569;42.652;23.040;2022-12-18T15:53:43;53.30;;;18.77;;
28304;SDS011;15569;42.652;23.040;2022-12-18T15:56:10;44.20;;;15.73;;
28304;SDS011;15569;42.652;23.040;2022-12-18T15:58:55;53.13;;;15.18;;
28304;SDS011;15569;42.652;23.040;2022-12-18T16:01:22;33.33;;;13.75;;
28304;SDS011;15569;42.652;23.040;2022-12-18T16:03:48;29.80;;;11.10;;
28304;SDS011;15569;42.652;23.040;2022-12-18T16:06:14;34.33;;;12.85;;
28304;SDS011;15569;42.652;23.040;2022-12-18T16:08:39;29.02;;;12.45;;
28304;SDS011;15569;42.652;23.040;2022-12-18T16:11:04;30.52;;;11.68;;
28304;SDS011;15569;42.652;23.040;2022-12-18T16:13:30;39.75;;;14.48;;
28304;SDS011;15569;42.652;23.040;2022-12-18T16:15:56;42.58;;;15.02;;
28304;SDS011;15569;42.652;23.040;2022-12-18T16:18:21;32.10;;;13.32;;
28304;SDS011;15569;42.652;23.040;2022-12-18T16:20:47;77.88;;;23.98;;
28304;SDS011;15569;42.652;23.040;2022-12-18T16:23:13;67.90;;;20.10;;
28304;SDS011;15569;42.652;23.040;2022-12-18T16:25:38;57.92;;;18.98;;
28304;SDS011;15569;42.652;23.040;2022-12-18T16:28:03;65.50;;;20.77;;
28304;SDS011;15569;42.652;23.040;2022-12-18T16:30:29;38.45;;;14.82;;
28304;SDS011;15569;42.652;23.040;2022-12-18T16:32:56;35.97;;;13.60;;
28304;SDS011;15569;42.652;23.040;2022-12-18T16:35:24;26.95;;;12.07;;
28304;SDS011;15569;42.652;23.040;2022-12-18T16:37:50;53.28;;;17.55;;
28304;SDS011;15569;42.652;23.040;2022-12-18T16:40:16;104.63;;;30.45;;
28304;SDS011;15569;42.652;23.040;2022-12-18T16:42:43;52.95;;;18.48;;
28304;SDS011;15569;42.652;23.040;2022-12-18T16:45:11;48.47;;;17.27;;